sensor_id;sensor_type;location;lat;lon;timestamp;temperature;humidity
39099;DHT22;24844;52.380;7.018;2023-10-09T00:00:11;13.30;99.90
39099;DHT22;24844;52.380;7.018;2023-10-09T00:02:56;13.30;99.90
39099;DHT22;24844;52.380;7.018;2023-10-09T00:05:23;13.40;99.90
39099;DHT22;24844;52.380;7.018;2023-10-09T00:07:53;13.50;99.90
39099;DHT22;24844;52.380;7.018;2023-10-09T00:10:21;13.30;99.90
39099;DHT22;24844;52.380;7.018;2023-10-09T00:12:47;13.50;99.90
39099;DHT22;24844;52.380;7.018;2023-10-09T00:15:14;13.50;99.90
39099;DHT22;24844;52.380;7.018;2023-10-09T00:17:44;13.60;99.90
39099;DHT22;24844;52.380;7.018;2023-10-09T00:20:13;13.70;99.90
39099;DHT22;24844;52.380;7.018;2023-10-09T00:22:43;13.70;99.90
39099;DHT22;24844;52.380;7.018;2023-10-09T00:25:12;13.80;99.90
39099;DHT22;24844;52.380;7.018;2023-10-09T00:27:42;13.90;99.90
39099;DHT22;24844;52.380;7.018;2023-10-09T00:30:10;13.90;99.90
39099;DHT22;24844;52.380;7.018;2023-10-09T00:32:37;14.00;99.90
39099;DHT22;24844;52.380;7.018;2023-10-09T00:35:10;14.00;99.90
39099;DHT22;24844;52.380;7.018;2023-10-09T00:37:59;14.00;99.90
39099;DHT22;24844;52.380;7.018;2023-10-09T00:40:32;14.00;99.90
39099;DHT22;24844;52.380;7.018;2023-10-09T00:43:00;14.10;99.90
39099;DHT22;24844;52.380;7.018;2023-10-09T00:45:32;14.20;99.90
39099;DHT22;24844;52.380;7.018;2023-10-09T00:47:58;14.20;99.90
39099;DHT22;24844;52.380;7.018;2023-10-09T00:50:27;14.20;99.90
39099;DHT22;24844;52.380;7.018;2023-10-09T00:53:01;14.20;99.90
39099;DHT22;24844;52.380;7.018;2023-10-09T00:55:31;14.40;99.90
39099;DHT22;24844;52.380;7.018;2023-10-09T00:58:24;14.40;99.90
39099;DHT22;24844;52.380;7.018;2023-10-09T01:00:52;14.40;99.90
39099;DHT22;24844;52.380;7.018;2023-10-09T01:03:19;14.50;99.90
39099;DHT22;24844;52.380;7.018;2023-10-09T01:05:57;14.60;99.90
39099;DHT22;24844;52.380;7.018;2023-10-09T01:08:39;14.60;99.90
39099;DHT22;24844;52.380;7.018;2023-10-09T01:11:11;14.80;99.90
39099;DHT22;24844;52.380;7.018;2023-10-09T01:13:55;14.80;99.90
39099;DHT22;24844;52.380;7.018;2023-10-09T01:16:36;14.90;99.90
39099;DHT22;24844;52.380;7.018;2023-10-09T01:19:03;14.90;99.90
39099;DHT22;24844;52.380;7.018;2023-10-09T01:21:39;14.90;99.90
39099;DHT22;24844;52.380;7.018;2023-10-09T01:24:08;14.90;99.90
39099;DHT22;24844;52.380;7.018;2023-10-09T01:26:37;15.00;99.90
39099;DHT22;24844;52.380;7.018;2023-10-09T01:29:14;15.10;99.90
39099;DHT22;24844;52.380;7.018;2023-10-09T01:31:41;15.10;99.90
39099;DHT22;24844;52.380;7.018;2023-10-09T01:34:25;14.90;99.90
39099;DHT22;24844;52.380;7.018;2023-10-09T01:37:03;14.90;99.90
39099;DHT22;24844;52.380;7.018;2023-10-09T01:39:31;15.10;99.90
39099;DHT22;24844;52.380;7.018;2023-10-09T01:41:57;15.10;99.90
39099;DHT22;24844;52.380;7.018;2023-10-09T01:44:27;15.10;99.90
39099;DHT22;24844;52.380;7.018;2023-10-09T01:47:02;15.10;99.90
39099;DHT22;24844;52.380;7.018;2023-10-09T01:49:36;15.20;99.90
39099;DHT22;24844;52.380;7.018;2023-10-09T01:52:07;15.20;99.90
39099;DHT22;24844;52.380;7.018;2023-10-09T01:54:39;15.30;99.90
39099;DHT22;24844;52.380;7.018;2023-10-09T01:57:07;15.40;99.90
39099;DHT22;24844;52.380;7.018;2023-10-09T01:59:43;15.30;99.90
39099;DHT22;24844;52.380;7.018;2023-10-09T02:02:23;15.40;99.90
39099;DHT22;24844;52.380;7.018;2023-10-09T02:04:55;15.40;99.90
39099;DHT22;24844;52.380;7.018;2023-10-09T02:07:31;15.50;99.90
39099;DHT22;24844;52.380;7.018;2023-10-09T02:10:07;15.50;99.90
39099;DHT22;24844;52.380;7.018;2023-10-09T02:12:53;15.60;99.90
39099;DHT22;24844;52.380;7.018;2023-10-09T02:15:23;15.60;99.90
39099;DHT22;24844;52.380;7.018;2023-10-09T02:18:17;15.60;99.90
39099;DHT22;24844;52.380;7.018;2023-10-09T02:20:51;15.70;99.90
39099;DHT22;24844;52.380;7.018;2023-10-09T02:23:30;15.70;99.90
39099;DHT22;24844;52.380;7.018;2023-10-09T02:26:18;15.70;99.90
39099;DHT22;24844;52.380;7.018;2023-10-09T02:29:04;15.60;99.90
39099;DHT22;24844;52.380;7.018;2023-10-09T02:31:40;15.60;99.90
39099;DHT22;24844;52.380;7.018;2023-10-09T02:34:09;15.70;99.90
39099;DHT22;24844;52.380;7.018;2023-10-09T02:36:36;15.60;99.90
39099;DHT22;24844;52.380;7.018;2023-10-09T02:39:09;15.50;99.90
39099;DHT22;24844;52.380;7.018;2023-10-09T02:41:52;15.80;99.90
39099;DHT22;24844;52.380;7.018;2023-10-09T02:44:20;15.70;99.90
39099;DHT22;24844;52.380;7.018;2023-10-09T02:46:51;15.80;99.90
39099;DHT22;24844;52.380;7.018;2023-10-09T02:49:17;15.80;99.90
39099;DHT22;24844;52.380;7.018;2023-10-09T02:51:43;15.80;99.90
39099;DHT22;24844;52.380;7.018;2023-10-09T02:54:18;15.80;99.90
39099;DHT22;24844;52.380;7.018;2023-10-09T02:56:51;15.80;99.90
39099;DHT22;24844;52.380;7.018;2023-10-09T02:59:32;15.80;99.90
39099;DHT22;24844;52.380;7.018;2023-10-09T03:01:58;15.90;99.90
39099;DHT22;24844;52.380;7.018;2023-10-09T03:04:28;15.90;99.90
39099;DHT22;24844;52.380;7.018;2023-10-09T03:06:55;15.90;99.90
39099;DHT22;24844;52.380;7.018;2023-10-09T03:09:23;16.00;99.90
39099;DHT22;24844;52.380;7.018;2023-10-09T03:11:56;15.90;99.90
39099;DHT22;24844;52.380;7.018;2023-10-09T03:14:31;15.90;99.90
39099;DHT22;24844;52.380;7.018;2023-10-09T03:16:58;16.00;99.90
39099;DHT22;24844;52.380;7.018;2023-10-09T03:19:26;16.00;99.90
39099;DHT22;24844;52.380;7.018;2023-10-09T03:21:52;16.00;99.90
39099;DHT22;24844;52.380;7.018;2023-10-09T03:24:17;16.10;99.90
39099;DHT22;24844;52.380;7.018;2023-10-09T03:26:43;16.10;99.90
39099;DHT22;24844;52.380;7.018;2023-10-09T03:29:10;16.00;99.90
39099;DHT22;24844;52.380;7.018;2023-10-09T03:31:39;16.20;99.90
39099;DHT22;24844;52.380;7.018;2023-10-09T03:34:08;16.20;99.90
39099;DHT22;24844;52.380;7.018;2023-10-09T03:36:36;16.20;99.90
39099;DHT22;24844;52.380;7.018;2023-10-09T03:39:05;16.10;99.90
39099;DHT22;24844;52.380;7.018;2023-10-09T03:41:51;16.20;99.90
39099;DHT22;24844;52.380;7.018;2023-10-09T03:44:16;16.10;99.90
39099;DHT22;24844;52.380;7.018;2023-10-09T03:46:44;16.30;99.90
39099;DHT22;24844;52.380;7.018;2023-10-09T03:49:10;16.20;99.90
39099;DHT22;24844;52.380;7.018;2023-10-09T03:51:41;16.20;99.90
39099;DHT22;24844;52.380;7.018;2023-10-09T03:54:07;16.10;99.90
39099;DHT22;24844;52.380;7.018;2023-10-09T03:56:36;16.20;99.90
39099;DHT22;24844;52.380;7.018;2023-10-09T03:59:01;16.20;99.90
39099;DHT22;24844;52.380;7.018;2023-10-09T04:01:29;16.20;99.90
39099;DHT22;24844;52.380;7.018;2023-10-09T04:03:59;16.30;99.90
39099;DHT22;24844;52.380;7.018;2023-10-09T04:06:26;16.20;99.90
39099;DHT22;24844;52.380;7.018;2023-10-09T04:09:03;16.30;99.90
39099;DHT22;24844;52.380;7.018;2023-10-09T04:11:44;16.40;99.90
39099;DHT22;24844;52.380;7.018;2023-10-09T04:14:12;16.30;99.90
39099;DHT22;24844;52.380;7.018;2023-10-09T04:16:49;16.40;99.90
39099;DHT22;24844;52.380;7.018;2023-10-09T04:19:18;16.50;99.90
39099;DHT22;24844;52.380;7.018;2023-10-09T04:21:48;16.30;99.90
39099;DHT22;24844;52.380;7.018;2023-10-09T04:24:14;16.40;99.90
39099;DHT22;24844;52.380;7.018;2023-10-09T04:26:40;16.40;99.90
39099;DHT22;24844;52.380;7.018;2023-10-09T04:29:15;16.40;99.90
39099;DHT22;24844;52.380;7.018;2023-10-09T04:31:52;16.30;99.90
39099;DHT22;24844;52.380;7.018;2023-10-09T04:34:19;16.30;99.90
39099;DHT22;24844;52.380;7.018;2023-10-09T04:36:50;16.40;99.90
39099;DHT22;24844;52.380;7.018;2023-10-09T04:39:25;16.50;99.90
39099;DHT22;24844;52.380;7.018;2023-10-09T04:41:57;16.50;99.90
39099;DHT22;24844;52.380;7.018;2023-10-09T04:44:42;16.50;99.90
39099;DHT22;24844;52.380;7.018;2023-10-09T04:47:33;16.70;99.90
39099;DHT22;24844;52.380;7.018;2023-10-09T04:50:09;16.50;99.90
39099;DHT22;24844;52.380;7.018;2023-10-09T04:52:44;16.60;99.90
39099;DHT22;24844;52.380;7.018;2023-10-09T04:55:10;16.70;99.90
39099;DHT22;24844;52.380;7.018;2023-10-09T04:57:40;16.70;99.90
39099;DHT22;24844;52.380;7.018;2023-10-09T05:00:13;16.60;99.90
39099;DHT22;24844;52.380;7.018;2023-10-09T05:03:02;16.70;99.90
39099;DHT22;24844;52.380;7.018;2023-10-09T05:05:33;16.50;99.90
39099;DHT22;24844;52.380;7.018;2023-10-09T05:08:17;16.60;99.90
39099;DHT22;24844;52.380;7.018;2023-10-09T05:10:46;16.70;99.90
39099;DHT22;24844;52.380;7.018;2023-10-09T05:13:32;16.60;99.90
39099;DHT22;24844;52.380;7.018;2023-10-09T05:16:07;16.70;99.90
39099;DHT22;24844;52.380;7.018;2023-10-09T05:18:50;16.70;99.90
39099;DHT22;24844;52.380;7.018;2023-10-09T05:21:27;16.80;99.90
39099;DHT22;24844;52.380;7.018;2023-10-09T05:24:00;16.70;99.90
39099;DHT22;24844;52.380;7.018;2023-10-09T05:26:45;16.70;99.90
39099;DHT22;24844;52.380;7.018;2023-10-09T05:29:15;16.80;99.90
39099;DHT22;24844;52.380;7.018;2023-10-09T05:32:00;16.80;99.90
39099;DHT22;24844;52.380;7.018;2023-10-09T05:34:53;17.00;99.90
39099;DHT22;24844;52.380;7.018;2023-10-09T05:37:29;16.80;99.90
39099;DHT22;24844;52.380;7.018;2023-10-09T05:39:59;16.90;99.90
39099;DHT22;24844;52.380;7.018;2023-10-09T05:42:28;17.00;99.90
39099;DHT22;24844;52.380;7.018;2023-10-09T05:45:07;17.00;99.90
39099;DHT22;24844;52.380;7.018;2023-10-09T05:47:52;17.00;99.90
39099;DHT22;24844;52.380;7.018;2023-10-09T05:50:27;17.00;99.90
39099;DHT22;24844;52.380;7.018;2023-10-09T05:52:57;17.00;99.90
39099;DHT22;24844;52.380;7.018;2023-10-09T05:55:32;16.90;99.90
39099;DHT22;24844;52.380;7.018;2023-10-09T05:58:16;16.90;99.90
39099;DHT22;24844;52.380;7.018;2023-10-09T06:01:00;16.90;99.90
39099;DHT22;24844;52.380;7.018;2023-10-09T06:03:45;16.90;99.90
39099;DHT22;24844;52.380;7.018;2023-10-09T06:06:16;16.90;99.90
39099;DHT22;24844;52.380;7.018;2023-10-09T06:09:04;16.90;99.90
39099;DHT22;24844;52.380;7.018;2023-10-09T06:11:39;16.90;99.90
39099;DHT22;24844;52.380;7.018;2023-10-09T06:14:06;16.90;99.90
39099;DHT22;24844;52.380;7.018;2023-10-09T06:16:38;17.10;99.90
39099;DHT22;24844;52.380;7.018;2023-10-09T06:19:10;17.10;99.90
39099;DHT22;24844;52.380;7.018;2023-10-09T06:21:58;17.10;99.90
39099;DHT22;24844;52.380;7.018;2023-10-09T06:24:43;17.00;99.90
39099;DHT22;24844;52.380;7.018;2023-10-09T06:27:21;17.00;99.90
39099;DHT22;24844;52.380;7.018;2023-10-09T06:29:57;17.10;99.90
39099;DHT22;24844;52.380;7.018;2023-10-09T06:32:42;17.10;99.90
39099;DHT22;24844;52.380;7.018;2023-10-09T06:35:24;17.00;99.90
39099;DHT22;24844;52.380;7.018;2023-10-09T06:37:59;17.00;99.90
39099;DHT22;24844;52.380;7.018;2023-10-09T06:40:28;17.10;99.90
39099;DHT22;24844;52.380;7.018;2023-10-09T06:43:12;17.10;99.90
39099;DHT22;24844;52.380;7.018;2023-10-09T06:45:47;17.20;99.90
39099;DHT22;24844;52.380;7.018;2023-10-09T06:48:21;17.20;99.90
39099;DHT22;24844;52.380;7.018;2023-10-09T06:51:10;17.30;99.90
39099;DHT22;24844;52.380;7.018;2023-10-09T06:53:52;17.30;99.90
39099;DHT22;24844;52.380;7.018;2023-10-09T06:56:21;17.30;99.90
39099;DHT22;24844;52.380;7.018;2023-10-09T06:58:56;17.40;99.90
39099;DHT22;24844;52.380;7.018;2023-10-09T07:01:26;17.30;99.90
39099;DHT22;24844;52.380;7.018;2023-10-09T07:04:05;17.40;99.90
39099;DHT22;24844;52.380;7.018;2023-10-09T07:07:06;17.50;99.90
39099;DHT22;24844;52.380;7.018;2023-10-09T07:09:40;17.40;99.90
39099;DHT22;24844;52.380;7.018;2023-10-09T07:12:09;17.40;99.90
39099;DHT22;24844;52.380;7.018;2023-10-09T07:14:39;17.50;99.90
39099;DHT22;24844;52.380;7.018;2023-10-09T07:17:06;17.40;99.90
39099;DHT22;24844;52.380;7.018;2023-10-09T07:19:48;17.50;99.90
39099;DHT22;24844;52.380;7.018;2023-10-09T07:22:14;17.60;99.90
39099;DHT22;24844;52.380;7.018;2023-10-09T07:24:46;17.50;99.90
39099;DHT22;24844;52.380;7.018;2023-10-09T07:27:39;17.60;99.90
39099;DHT22;24844;52.380;7.018;2023-10-09T07:30:15;17.50;99.90
39099;DHT22;24844;52.380;7.018;2023-10-09T07:33:01;17.70;99.90
39099;DHT22;24844;52.380;7.018;2023-10-09T07:35:37;17.60;99.90
39099;DHT22;24844;52.380;7.018;2023-10-09T07:38:28;17.70;99.90
39099;DHT22;24844;52.380;7.018;2023-10-09T07:41:01;17.90;99.90
39099;DHT22;24844;52.380;7.018;2023-10-09T07:43:35;17.70;99.90
39099;DHT22;24844;52.380;7.018;2023-10-09T07:46:05;18.00;99.90
39099;DHT22;24844;52.380;7.018;2023-10-09T07:48:31;18.00;99.90
39099;DHT22;24844;52.380;7.018;2023-10-09T07:51:16;18.10;99.90
39099;DHT22;24844;52.380;7.018;2023-10-09T07:53:42;18.00;99.90
39099;DHT22;24844;52.380;7.018;2023-10-09T07:56:11;18.00;99.90
39099;DHT22;24844;52.380;7.018;2023-10-09T07:58:39;18.00;99.90
39099;DHT22;24844;52.380;7.018;2023-10-09T08:01:14;18.10;99.90
39099;DHT22;24844;52.380;7.018;2023-10-09T08:04:00;18.10;99.90
39099;DHT22;24844;52.380;7.018;2023-10-09T08:06:45;18.10;99.90
39099;DHT22;24844;52.380;7.018;2023-10-09T08:09:13;18.10;99.90
39099;DHT22;24844;52.380;7.018;2023-10-09T08:11:43;18.10;99.90
39099;DHT22;24844;52.380;7.018;2023-10-09T08:14:12;18.20;99.90
39099;DHT22;24844;52.380;7.018;2023-10-09T08:17:07;18.20;99.90
39099;DHT22;24844;52.380;7.018;2023-10-09T08:19:47;18.30;99.90
39099;DHT22;24844;52.380;7.018;2023-10-09T08:22:27;18.00;99.90
39099;DHT22;24844;52.380;7.018;2023-10-09T08:24:56;18.00;99.90
39099;DHT22;24844;52.380;7.018;2023-10-09T08:27:29;18.10;99.90
39099;DHT22;24844;52.380;7.018;2023-10-09T08:30:05;17.90;99.90
39099;DHT22;24844;52.380;7.018;2023-10-09T08:32:44;18.00;99.90
39099;DHT22;24844;52.380;7.018;2023-10-09T08:35:35;18.10;99.90
39099;DHT22;24844;52.380;7.018;2023-10-09T08:38:13;18.40;99.90
39099;DHT22;24844;52.380;7.018;2023-10-09T08:40:42;18.20;99.90
39099;DHT22;24844;52.380;7.018;2023-10-09T08:43:17;18.40;99.90
39099;DHT22;24844;52.380;7.018;2023-10-09T08:45:48;18.30;99.90
39099;DHT22;24844;52.380;7.018;2023-10-09T08:48:14;18.40;99.90
39099;DHT22;24844;52.380;7.018;2023-10-09T08:50:48;18.50;99.90
39099;DHT22;24844;52.380;7.018;2023-10-09T08:53:16;18.60;99.90
39099;DHT22;24844;52.380;7.018;2023-10-09T08:55:43;18.60;99.90
39099;DHT22;24844;52.380;7.018;2023-10-09T08:58:09;18.60;99.90
39099;DHT22;24844;52.380;7.018;2023-10-09T09:01:01;18.80;99.90
39099;DHT22;24844;52.380;7.018;2023-10-09T09:03:41;18.90;99.90
39099;DHT22;24844;52.380;7.018;2023-10-09T09:06:09;18.90;99.90
39099;DHT22;24844;52.380;7.018;2023-10-09T09:08:34;19.10;99.90
39099;DHT22;24844;52.380;7.018;2023-10-09T09:11:17;19.30;99.90
39099;DHT22;24844;52.380;7.018;2023-10-09T09:14:03;19.40;99.90
39099;DHT22;24844;52.380;7.018;2023-10-09T09:16:36;19.40;99.90
39099;DHT22;24844;52.380;7.018;2023-10-09T09:19:09;19.20;99.90
39099;DHT22;24844;52.380;7.018;2023-10-09T09:21:37;19.20;99.90
39099;DHT22;24844;52.380;7.018;2023-10-09T09:24:07;19.20;99.90
39099;DHT22;24844;52.380;7.018;2023-10-09T09:26:54;19.10;99.90
39099;DHT22;24844;52.380;7.018;2023-10-09T09:32:02;19.10;99.90
39099;DHT22;24844;52.380;7.018;2023-10-09T09:34:49;19.10;99.90
39099;DHT22;24844;52.380;7.018;2023-10-09T09:37:25;19.20;99.90
39099;DHT22;24844;52.380;7.018;2023-10-09T09:40:02;19.20;99.90
39099;DHT22;24844;52.380;7.018;2023-10-09T09:42:42;19.40;99.90
39099;DHT22;24844;52.380;7.018;2023-10-09T09:45:11;19.40;99.90
39099;DHT22;24844;52.380;7.018;2023-10-09T09:47:37;19.40;99.90
39099;DHT22;24844;52.380;7.018;2023-10-09T09:50:05;19.30;99.90
39099;DHT22;24844;52.380;7.018;2023-10-09T09:52:50;19.50;99.90
39099;DHT22;24844;52.380;7.018;2023-10-09T09:55:24;19.40;99.90
39099;DHT22;24844;52.380;7.018;2023-10-09T09:57:56;19.50;99.90
39099;DHT22;24844;52.380;7.018;2023-10-09T10:00:31;19.70;99.90
39099;DHT22;24844;52.380;7.018;2023-10-09T10:03:13;19.70;99.90
39099;DHT22;24844;52.380;7.018;2023-10-09T10:05:42;19.80;99.90
39099;DHT22;24844;52.380;7.018;2023-10-09T10:08:08;19.90;99.90
39099;DHT22;24844;52.380;7.018;2023-10-09T10:10:40;19.90;99.90
39099;DHT22;24844;52.380;7.018;2023-10-09T10:16:15;19.90;99.90
39099;DHT22;24844;52.380;7.018;2023-10-09T10:19:13;19.90;99.90
39099;DHT22;24844;52.380;7.018;2023-10-09T10:21:41;19.80;99.90
39099;DHT22;24844;52.380;7.018;2023-10-09T10:27:15;19.80;99.90
39099;DHT22;24844;52.380;7.018;2023-10-09T10:32:53;19.80;99.90
39099;DHT22;24844;52.380;7.018;2023-10-09T10:35:19;19.70;99.90
39099;DHT22;24844;52.380;7.018;2023-10-09T10:37:46;19.70;99.90
39099;DHT22;24844;52.380;7.018;2023-10-09T10:40:28;19.80;99.90
39099;DHT22;24844;52.380;7.018;2023-10-09T10:43:07;19.80;99.90
39099;DHT22;24844;52.380;7.018;2023-10-09T10:46:06;19.80;99.90
39099;DHT22;24844;52.380;7.018;2023-10-09T10:48:51;19.80;99.90
39099;DHT22;24844;52.380;7.018;2023-10-09T10:51:29;19.70;99.90
39099;DHT22;24844;52.380;7.018;2023-10-09T10:54:09;19.70;99.90
39099;DHT22;24844;52.380;7.018;2023-10-09T10:56:53;19.70;99.90
39099;DHT22;24844;52.380;7.018;2023-10-09T10:59:23;19.70;99.90
39099;DHT22;24844;52.380;7.018;2023-10-09T11:01:50;19.80;99.90
39099;DHT22;24844;52.380;7.018;2023-10-09T11:04:23;19.90;99.90
39099;DHT22;24844;52.380;7.018;2023-10-09T11:07:02;19.60;99.90
39099;DHT22;24844;52.380;7.018;2023-10-09T11:10:03;19.60;99.90
39099;DHT22;24844;52.380;7.018;2023-10-09T11:12:30;19.60;99.90
39099;DHT22;24844;52.380;7.018;2023-10-09T11:15:13;19.90;99.90
39099;DHT22;24844;52.380;7.018;2023-10-09T11:18:04;19.90;99.90
39099;DHT22;24844;52.380;7.018;2023-10-09T11:20:51;20.10;99.90
39099;DHT22;24844;52.380;7.018;2023-10-09T11:23:23;20.10;99.90
39099;DHT22;24844;52.380;7.018;2023-10-09T11:25:59;20.20;99.90
39099;DHT22;24844;52.380;7.018;2023-10-09T11:28:45;20.30;99.90
39099;DHT22;24844;52.380;7.018;2023-10-09T11:31:23;20.30;99.90
39099;DHT22;24844;52.380;7.018;2023-10-09T11:33:50;20.60;99.90
39099;DHT22;24844;52.380;7.018;2023-10-09T11:36:20;20.80;99.90
39099;DHT22;24844;52.380;7.018;2023-10-09T11:38:57;20.90;99.90
39099;DHT22;24844;52.380;7.018;2023-10-09T11:41:42;21.40;99.90
39099;DHT22;24844;52.380;7.018;2023-10-09T11:44:08;21.90;99.90
39099;DHT22;24844;52.380;7.018;2023-10-09T11:47:00;22.20;99.90
39099;DHT22;24844;52.380;7.018;2023-10-09T11:49:57;22.30;99.90
39099;DHT22;24844;52.380;7.018;2023-10-09T11:52:57;22.10;99.90
39099;DHT22;24844;52.380;7.018;2023-10-09T11:55:44;22.10;99.90
39099;DHT22;24844;52.380;7.018;2023-10-09T11:58:17;22.30;99.90
39099;DHT22;24844;52.380;7.018;2023-10-09T12:03:17;22.00;99.90
39099;DHT22;24844;52.380;7.018;2023-10-09T12:05:42;21.40;99.90
39099;DHT22;24844;52.380;7.018;2023-10-09T12:08:10;21.20;99.90
39099;DHT22;24844;52.380;7.018;2023-10-09T12:10:36;21.10;99.90
39099;DHT22;24844;52.380;7.018;2023-10-09T12:13:05;21.00;99.90
39099;DHT22;24844;52.380;7.018;2023-10-09T12:15:31;21.00;99.90
39099;DHT22;24844;52.380;7.018;2023-10-09T12:18:07;21.00;99.90
39099;DHT22;24844;52.380;7.018;2023-10-09T12:20:41;21.00;99.90
39099;DHT22;24844;52.380;7.018;2023-10-09T12:23:07;20.70;99.90
39099;DHT22;24844;52.380;7.018;2023-10-09T12:25:33;20.60;99.90
39099;DHT22;24844;52.380;7.018;2023-10-09T12:28:01;20.60;99.90
39099;DHT22;24844;52.380;7.018;2023-10-09T12:30:28;20.40;99.90
39099;DHT22;24844;52.380;7.018;2023-10-09T12:32:55;20.20;99.90
39099;DHT22;24844;52.380;7.018;2023-10-09T12:35:25;20.40;99.90
39099;DHT22;24844;52.380;7.018;2023-10-09T12:37:51;20.40;99.90
39099;DHT22;24844;52.380;7.018;2023-10-09T12:40:17;20.10;99.90
39099;DHT22;24844;52.380;7.018;2023-10-09T12:42:50;20.30;99.90
39099;DHT22;24844;52.380;7.018;2023-10-09T12:45:16;20.60;99.90
39099;DHT22;24844;52.380;7.018;2023-10-09T12:47:43;21.00;99.90
39099;DHT22;24844;52.380;7.018;2023-10-09T12:50:09;21.30;99.90
39099;DHT22;24844;52.380;7.018;2023-10-09T12:52:39;21.60;99.90
39099;DHT22;24844;52.380;7.018;2023-10-09T12:55:05;21.80;99.90
39099;DHT22;24844;52.380;7.018;2023-10-09T12:57:33;22.20;99.90
39099;DHT22;24844;52.380;7.018;2023-10-09T12:59:59;22.40;99.90
39099;DHT22;24844;52.380;7.018;2023-10-09T13:02:25;22.50;99.90
39099;DHT22;24844;52.380;7.018;2023-10-09T13:04:59;22.40;99.90
39099;DHT22;24844;52.380;7.018;2023-10-09T13:07:25;22.20;99.90
39099;DHT22;24844;52.380;7.018;2023-10-09T13:09:51;22.10;99.90
39099;DHT22;24844;52.380;7.018;2023-10-09T13:12:35;22.40;99.90
39099;DHT22;24844;52.380;7.018;2023-10-09T13:15:10;22.20;99.90
39099;DHT22;24844;52.380;7.018;2023-10-09T13:17:37;22.10;99.90
39099;DHT22;24844;52.380;7.018;2023-10-09T13:20:03;22.00;99.90
39099;DHT22;24844;52.380;7.018;2023-10-09T13:22:41;21.70;99.90
39099;DHT22;24844;52.380;7.018;2023-10-09T13:25:08;21.60;99.90
39099;DHT22;24844;52.380;7.018;2023-10-09T13:27:41;21.30;99.90
39099;DHT22;24844;52.380;7.018;2023-10-09T13:30:08;21.40;99.90
39099;DHT22;24844;52.380;7.018;2023-10-09T13:32:35;21.60;99.90
39099;DHT22;24844;52.380;7.018;2023-10-09T13:35:05;21.60;99.90
39099;DHT22;24844;52.380;7.018;2023-10-09T13:37:31;21.70;99.90
39099;DHT22;24844;52.380;7.018;2023-10-09T13:40:03;21.80;99.90
39099;DHT22;24844;52.380;7.018;2023-10-09T13:42:35;21.70;99.90
39099;DHT22;24844;52.380;7.018;2023-10-09T13:45:02;21.70;99.90
39099;DHT22;24844;52.380;7.018;2023-10-09T13:47:41;21.70;99.90
39099;DHT22;24844;52.380;7.018;2023-10-09T13:50:10;21.70;99.90
39099;DHT22;24844;52.380;7.018;2023-10-09T13:52:36;21.80;99.90
39099;DHT22;24844;52.380;7.018;2023-10-09T13:55:05;21.70;99.90
39099;DHT22;24844;52.380;7.018;2023-10-09T13:57:41;21.40;99.90
39099;DHT22;24844;52.380;7.018;2023-10-09T14:00:12;21.40;99.90
39099;DHT22;24844;52.380;7.018;2023-10-09T14:02:42;21.50;99.90
39099;DHT22;24844;52.380;7.018;2023-10-09T14:05:08;21.50;99.90
39099;DHT22;24844;52.380;7.018;2023-10-09T14:07:34;21.50;99.90
39099;DHT22;24844;52.380;7.018;2023-10-09T14:10:00;21.60;99.90
39099;DHT22;24844;52.380;7.018;2023-10-09T14:12:51;21.50;99.90
39099;DHT22;24844;52.380;7.018;2023-10-09T14:15:19;21.30;99.90
39099;DHT22;24844;52.380;7.018;2023-10-09T14:17:45;21.60;99.90
39099;DHT22;24844;52.380;7.018;2023-10-09T14:20:12;21.50;99.90
39099;DHT22;24844;52.380;7.018;2023-10-09T14:22:58;21.60;99.90
39099;DHT22;24844;52.380;7.018;2023-10-09T14:25:34;21.40;99.90
39099;DHT22;24844;52.380;7.018;2023-10-09T14:28:06;21.30;99.90
39099;DHT22;24844;52.380;7.018;2023-10-09T14:30:38;21.10;99.90
39099;DHT22;24844;52.380;7.018;2023-10-09T14:33:11;21.10;99.90
39099;DHT22;24844;52.380;7.018;2023-10-09T14:35:40;21.10;99.90
39099;DHT22;24844;52.380;7.018;2023-10-09T14:38:06;21.10;99.90
39099;DHT22;24844;52.380;7.018;2023-10-09T14:40:47;21.00;99.90
39099;DHT22;24844;52.380;7.018;2023-10-09T14:43:13;21.10;99.90
39099;DHT22;24844;52.380;7.018;2023-10-09T14:45:46;20.90;99.90
39099;DHT22;24844;52.380;7.018;2023-10-09T14:48:14;21.00;99.90
39099;DHT22;24844;52.380;7.018;2023-10-09T14:50:50;21.00;99.90
39099;DHT22;24844;52.380;7.018;2023-10-09T14:53:19;21.10;99.90
39099;DHT22;24844;52.380;7.018;2023-10-09T14:55:45;21.00;99.90
39099;DHT22;24844;52.380;7.018;2023-10-09T14:58:13;21.10;99.90
39099;DHT22;24844;52.380;7.018;2023-10-09T15:00:39;21.00;99.90
39099;DHT22;24844;52.380;7.018;2023-10-09T15:03:11;21.20;99.90
39099;DHT22;24844;52.380;7.018;2023-10-09T15:05:42;21.10;99.90
39099;DHT22;24844;52.380;7.018;2023-10-09T15:08:09;21.00;99.90
39099;DHT22;24844;52.380;7.018;2023-10-09T15:13:13;21.00;99.90
39099;DHT22;24844;52.380;7.018;2023-10-09T15:15:43;21.00;99.90
39099;DHT22;24844;52.380;7.018;2023-10-09T15:18:09;21.30;99.90
39099;DHT22;24844;52.380;7.018;2023-10-09T15:20:39;21.00;99.90
39099;DHT22;24844;52.380;7.018;2023-10-09T15:23:08;21.00;99.90
39099;DHT22;24844;52.380;7.018;2023-10-09T15:25:34;21.10;99.90
39099;DHT22;24844;52.380;7.018;2023-10-09T15:28:03;21.20;99.90
39099;DHT22;24844;52.380;7.018;2023-10-09T15:30:29;21.30;99.90
39099;DHT22;24844;52.380;7.018;2023-10-09T15:32:57;21.20;99.90
39099;DHT22;24844;52.380;7.018;2023-10-09T15:35:23;21.40;99.90
39099;DHT22;24844;52.380;7.018;2023-10-09T15:37:48;21.50;99.90
39099;DHT22;24844;52.380;7.018;2023-10-09T15:40:20;21.50;99.90
39099;DHT22;24844;52.380;7.018;2023-10-09T15:42:50;21.60;99.90
39099;DHT22;24844;52.380;7.018;2023-10-09T15:45:16;21.50;99.90
39099;DHT22;24844;52.380;7.018;2023-10-09T15:47:42;21.40;99.90
39099;DHT22;24844;52.380;7.018;2023-10-09T15:50:10;21.40;99.90
39099;DHT22;24844;52.380;7.018;2023-10-09T15:52:38;21.40;99.90
39099;DHT22;24844;52.380;7.018;2023-10-09T15:55:05;21.10;99.90
39099;DHT22;24844;52.380;7.018;2023-10-09T15:57:39;21.00;99.90
39099;DHT22;24844;52.380;7.018;2023-10-09T16:00:06;20.70;99.90
39099;DHT22;24844;52.380;7.018;2023-10-09T16:02:42;20.50;99.90
39099;DHT22;24844;52.380;7.018;2023-10-09T16:05:09;20.50;99.90
39099;DHT22;24844;52.380;7.018;2023-10-09T16:07:40;20.60;99.90
39099;DHT22;24844;52.380;7.018;2023-10-09T16:10:06;20.50;99.90
39099;DHT22;24844;52.380;7.018;2023-10-09T16:12:37;20.50;99.90
39099;DHT22;24844;52.380;7.018;2023-10-09T16:15:03;20.50;99.90
39099;DHT22;24844;52.380;7.018;2023-10-09T16:17:34;20.30;99.90
39099;DHT22;24844;52.380;7.018;2023-10-09T16:20:00;20.30;99.90
39099;DHT22;24844;52.380;7.018;2023-10-09T16:22:27;20.20;99.90
39099;DHT22;24844;52.380;7.018;2023-10-09T16:24:59;20.20;99.90